Time;durP1;ratioP1;P1;durP2;ratioP2;P2;SDS_P1;SDS_P2;PMS_P1;PMS_P2;Temp;Humidity;BMP_temperature;BMP_pressure;BME280_temperature;BME280_humidity;BME280_pressure;Samples;Min_cycle;Max_cycle;Signal;HPM_P1;HPM_P2
2021/11/25 00:08:02;;;;;;;27.3;47.2;;;;;;;-1.8;81.6;98980;;;;
2021/11/25 00:19:02;;;;;;;27.3;47.2;;;;;;;-1.8;82.1;98970;;;;
2021/11/25 00:30:02;;;;;;;26.8;42.9;;;;;;;-1.9;81.2;98970;;;;
2021/11/25 00:41:02;;;;;;;26.8;42.9;;;;;;;-1.9;81.1;98960;;;;
2021/11/25 00:52:02;;;;;;;26.8;42.9;;;;;;;-2;80.8;98940;;;;
2021/11/25 01:03:02;;;;;;;25;36.8;;;;;;;-2.2;80.5;98930;;;;
2021/11/25 01:13:02;;;;;;;25;36.8;;;;;;;-2.2;81.3;98910;;;;
2021/11/25 01:23:02;;;;;;;25;36.8;;;;;;;-2.2;81.5;98900;;;;
2021/11/25 01:33:02;;;;;;;32.5;51.6;;;;;;;-2.3;81.3;98880;;;;
2021/11/25 01:44:02;;;;;;;32.5;51.6;;;;;;;-2.4;81;98870;;;;
2021/11/25 01:55:02;;;;;;;32.5;51.6;;;;;;;-2.5;81;98850;;;;
2021/11/25 02:06:02;;;;;;;32.9;54.3;;;;;;;-2.6;80.7;98830;;;;
2021/11/25 02:16:02;;;;;;;32.9;54.3;;;;;;;-2.7;81.1;98820;;;;
2021/11/25 02:27:02;;;;;;;32.9;54.3;;;;;;;-2.7;81.5;98800;;;;
2021/11/25 02:38:02;;;;;;;30.6;45.5;;;;;;;-2.7;81.4;98780;;;;
2021/11/25 02:49:02;;;;;;;30.6;45.5;;;;;;;-2.8;81;98770;;;;
2021/11/25 03:00:02;;;;;;;26.9;45;;;;;;;-2.9;81.3;98750;;;;
2021/11/25 03:11:02;;;;;;;26.9;45;;;;;;;-2.9;81.3;98730;;;;
2021/11/25 03:22:02;;;;;;;26.9;45;;;;;;;-2.9;82;98710;;;;
2021/11/25 03:33:02;;;;;;;24.6;38.6;;;;;;;-3;81.4;98700;;;;
2021/11/25 03:43:02;;;;;;;24.6;38.6;;;;;;;-3;81.7;98690;;;;
2021/11/25 03:54:02;;;;;;;24.6;38.6;;;;;;;-3;81.7;98680;;;;
2021/11/25 04:04:02;;;;;;;24.6;42.2;;;;;;;-3.1;81.5;98670;;;;
2021/11/25 04:15:03;;;;;;;24.6;42.2;;;;;;;-3.3;81.3;98650;;;;
2021/11/25 04:25:02;;;;;;;24.6;42.2;;;;;;;-3.4;81.6;98630;;;;
2021/11/25 04:36:02;;;;;;;23.6;37.4;;;;;;;-3.4;81.1;98620;;;;
2021/11/25 04:47:02;;;;;;;23.6;37.4;;;;;;;-3.5;81.2;98610;;;;
2021/11/25 04:57:02;;;;;;;23.6;37.4;;;;;;;-3.5;81.5;98590;;;;
2021/11/25 05:08:02;;;;;;;22.8;39.5;;;;;;;-3.5;81.5;98570;;;;
2021/11/25 05:18:02;;;;;;;22.8;39.5;;;;;;;-3.6;81.4;98560;;;;
2021/11/25 05:28:02;;;;;;;20.9;31.9;;;;;;;-3.6;81.6;98540;;;;
2021/11/25 05:39:02;;;;;;;20.9;31.9;;;;;;;-3.7;81.5;98540;;;;
2021/11/25 05:49:02;;;;;;;20.9;31.9;;;;;;;-3.6;82.2;98520;;;;
2021/11/25 05:59:02;;;;;;;24.8;38.7;;;;;;;-3.7;82.3;98520;;;;
2021/11/25 06:09:02;;;;;;;24.8;38.7;;;;;;;-3.7;81.8;98510;;;;
2021/11/25 06:20:03;;;;;;;24.8;38.7;;;;;;;-3.8;81.2;98500;;;;
2021/11/25 06:31:02;;;;;;;20.8;33.6;;;;;;;-3.8;81.2;98500;;;;
2021/11/25 06:42:02;;;;;;;20.8;33.6;;;;;;;-3.7;81;98510;;;;
2021/11/25 06:53:02;;;;;;;20.8;33.6;;;;;;;-3.7;80.8;98500;;;;
2021/11/25 07:04:03;;;;;;;22.9;37.6;;;;;;;-3.5;81.6;98490;;;;
2021/11/25 07:15:03;;;;;;;22.9;37.6;;;;;;;-3.2;82.4;98490;;;;
2021/11/25 07:25:02;;;;;;;22.9;37.6;;;;;;;-2.8;82.1;98490;;;;
2021/11/25 07:35:02;;;;;;;25.9;36.8;;;;;;;-2.5;81.8;98480;;;;
2021/11/25 07:46:02;;;;;;;25.9;36.8;;;;;;;-2.2;81.6;98480;;;;
2021/11/25 07:56:02;;;;;;;25.9;36.8;;;;;;;-1.9;81.5;98480;;;;
2021/11/25 08:07:02;;;;;;;33.3;48.5;;;;;;;-1.5;81.5;98450;;;;
2021/11/25 08:18:02;;;;;;;33.3;48.5;;;;;;;-1;81.3;98450;;;;
2021/11/25 08:28:03;;;;;;;40.9;56.5;;;;;;;-0.6;80.8;98440;;;;
2021/11/25 08:38:02;;;;;;;40.9;56.5;;;;;;;-0.2;80.5;98440;;;;
2021/11/25 08:49:02;;;;;;;40.9;56.5;;;;;;;0.2;80.1;98440;;;;
2021/11/25 08:59:02;;;;;;;53.2;61.9;;;;;;;0.5;79.4;98430;;;;
2021/11/25 09:09:02;;;;;;;53.2;61.9;;;;;;;0.9;78.8;98420;;;;
2021/11/25 09:20:02;;;;;;;53.2;61.9;;;;;;;1.3;78;98410;;;;
2021/11/25 09:31:02;;;;;;;69.6;82.5;;;;;;;1.6;77.1;98390;;;;
2021/11/25 09:41:02;;;;;;;69.6;82.5;;;;;;;1.9;76.2;98380;;;;
2021/11/25 09:52:02;;;;;;;69.6;82.5;;;;;;;2.2;75.6;98360;;;;
2021/11/25 10:02:02;;;;;;;67.4;86.5;;;;;;;2.7;75.4;98330;;;;
2021/11/25 10:12:03;;;;;;;67.4;86.5;;;;;;;3;73;98330;;;;
2021/11/25 10:22:03;;;;;;;67.4;86.5;;;;;;;3.5;72.9;98320;;;;
2021/11/25 10:33:02;;;;;;;47.7;55.1;;;;;;;3.6;69.7;98280;;;;
2021/11/25 10:43:02;;;;;;;47.7;55.1;;;;;;;4;68.6;98250;;;;
2021/11/25 10:54:03;;;;;;;47.7;55.1;;;;;;;4.7;68.1;98220;;;;
2021/11/25 11:04:02;;;;;;;37.9;46.3;;;;;;;5;67;98200;;;;
2021/11/25 11:15:13;;;;;;;37.9;46.3;;;;;;;5.5;64.3;98190;;;;
2021/11/25 11:25:03;;;;;;;37.9;46.3;;;;;;;5.9;61.5;98180;;;;
2021/11/25 11:35:04;;;;;;;28.2;33.4;;;;;;;6.3;61.4;98150;;;;
2021/11/25 11:46:02;;;;;;;28.2;33.4;;;;;;;6.6;59.5;98120;;;;
2021/11/25 11:57:03;;;;;;;18.4;23.6;;;;;;;6.9;58;98110;;;;
2021/11/25 12:07:02;;;;;;;18.4;23.6;;;;;;;7.1;58.1;98080;;;;
2021/11/25 12:17:03;;;;;;;18.4;23.6;;;;;;;7.2;58.2;98070;;;;
2021/11/25 12:27:04;;;;;;;17.9;24.2;;;;;;;7.4;57.2;98050;;;;
2021/11/25 12:37:02;;;;;;;17.9;24.2;;;;;;;7.1;57.6;98030;;;;
2021/11/25 12:48:02;;;;;;;17.9;24.2;;;;;;;7.4;57.7;98030;;;;
2021/11/25 12:59:02;;;;;;;21;24.8;;;;;;;7.5;57.3;98000;;;;
2021/11/25 13:09:04;;;;;;;21;24.8;;;;;;;7.6;57.3;97990;;;;
2021/11/25 13:19:04;;;;;;;21;24.8;;;;;;;7.5;57.6;97970;;;;
2021/11/25 13:30:03;;;;;;;22.2;28.6;;;;;;;7.3;58.1;97970;;;;
2021/11/25 13:40:05;;;;;;;22.2;28.6;;;;;;;7;59.5;97970;;;;
2021/11/25 13:50:04;;;;;;;22.2;28.6;;;;;;;6.9;60.7;97960;;;;
2021/11/25 14:00:02;;;;;;;30.5;37.2;;;;;;;6.7;60.9;97950;;;;
2021/11/25 14:10:04;;;;;;;30.5;37.2;;;;;;;6.1;62.3;97930;;;;
2021/11/25 14:20:02;;;;;;;30.5;37.2;;;;;;;5.6;63.4;97940;;;;
2021/11/25 14:31:02;;;;;;;27.4;34.6;;;;;;;5.1;64.1;97930;;;;
2021/11/25 14:41:03;;;;;;;27.4;34.6;;;;;;;4.6;65.4;97910;;;;
2021/11/25 14:52:02;;;;;;;27.4;34.6;;;;;;;4.1;67;97910;;;;
2021/11/25 15:02:03;;;;;;;38.1;47.8;;;;;;;3.6;68;97910;;;;
2021/11/25 15:13:03;;;;;;;38.1;47.8;;;;;;;3.2;69.1;97900;;;;
2021/11/25 15:23:03;;;;;;;38.1;47.8;;;;;;;2.9;70.9;97900;;;;
2021/11/25 15:33:06;;;;;;;37.8;43.7;;;;;;;2.6;71.4;97880;;;;
2021/11/25 15:44:03;;;;;;;37.8;43.7;;;;;;;2.3;72.1;97870;;;;
2021/11/25 15:54:03;;;;;;;37.8;43.7;;;;;;;2.1;72.4;97870;;;;
2021/11/25 16:05:03;;;;;;;86.3;99.8;;;;;;;1.9;72.8;97870;;;;
2021/11/25 16:15:03;;;;;;;86.3;99.8;;;;;;;1.8;73.6;97880;;;;
2021/11/25 16:26:03;;;;;;;57.7;69.3;;;;;;;1.8;73.6;97880;;;;
2021/11/25 16:36:03;;;;;;;57.7;69.3;;;;;;;1.9;74;97880;;;;
2021/11/25 16:47:29;;;;;;;57.7;69.3;;;;;;;1.7;73.7;97890;;;;
2021/11/25 16:57:03;;;;;;;89.2;119;;;;;;;1.5;75.3;97880;;;;
2021/11/25 17:08:03;;;;;;;89.2;119;;;;;;;1.3;75.2;97900;;;;
2021/11/25 17:19:03;;;;;;;89.2;119;;;;;;;0.9;75.5;97900;;;;
2021/11/25 17:29:03;;;;;;;89.9;112.7;;;;;;;0.6;76.9;97880;;;;
2021/11/25 17:40:03;;;;;;;89.9;112.7;;;;;;;0.5;77;97880;;;;
2021/11/25 17:51:03;;;;;;;89.9;112.7;;;;;;;0.5;77.2;97890;;;;
2021/11/25 18:02:03;;;;;;;78.5;102.2;;;;;;;0.2;77.2;97880;;;;
2021/11/25 18:12:03;;;;;;;78.5;102.2;;;;;;;0.1;78.1;97880;;;;
2021/11/25 18:22:04;;;;;;;78.5;102.2;;;;;;;0;78.2;97880;;;;
2021/11/25 18:32:03;;;;;;;77.5;101.5;;;;;;;0;78.6;97880;;;;
2021/11/25 18:43:03;;;;;;;77.5;101.5;;;;;;;0;78.5;97890;;;;
2021/11/25 18:54:03;;;;;;;77.5;101.5;;;;;;;-0.1;78.1;97890;;;;
2021/11/25 19:04:03;;;;;;;57.4;77.1;;;;;;;-0.1;78.6;97880;;;;
2021/11/25 19:15:03;;;;;;;57.4;77.1;;;;;;;-0.2;78.2;97880;;;;
2021/11/25 19:25:03;;;;;;;45.3;59.7;;;;;;;-0.3;78.4;97880;;;;
2021/11/25 19:35:03;;;;;;;45.3;59.7;;;;;;;-0.3;78.6;97880;;;;
2021/11/25 19:46:03;;;;;;;45.3;59.7;;;;;;;-0.1;79.4;97890;;;;
2021/11/25 19:57:03;;;;;;;43.4;55.2;;;;;;;0.2;79.9;97900;;;;
2021/11/25 20:08:03;;;;;;;43.4;55.2;;;;;;;0.2;79.4;97900;;;;
2021/11/25 20:19:03;;;;;;;43.4;55.2;;;;;;;0.5;80.7;97900;;;;
2021/11/25 20:29:03;;;;;;;48;61;;;;;;;0.6;80.5;97900;;;;
2021/11/25 20:39:03;;;;;;;48;61;;;;;;;0.5;80.4;97900;;;;
2021/11/25 20:50:03;;;;;;;48;61;;;;;;;0.5;80.5;97900;;;;
2021/11/25 21:01:03;;;;;;;82.2;104;;;;;;;0.9;82.2;97890;;;;
2021/11/25 21:11:03;;;;;;;82.2;104;;;;;;;1.1;82.5;97890;;;;
2021/11/25 21:21:03;;;;;;;82.2;104;;;;;;;1.3;83;97880;;;;
2021/11/25 21:31:03;;;;;;;60.3;73;;;;;;;1.4;82.3;97880;;;;
2021/11/25 21:42:03;;;;;;;60.3;73;;;;;;;1.5;82.4;97880;;;;
2021/11/25 21:53:03;;;;;;;60.3;73;;;;;;;1.5;82.7;97880;;;;
2021/11/25 22:04:03;;;;;;;53;66.5;;;;;;;1.8;82.6;97850;;;;
2021/11/25 22:14:03;;;;;;;53;66.5;;;;;;;1.7;82;97840;;;;
2021/11/25 22:25:04;;;;;;;55.2;65.3;;;;;;;1.4;80.9;97840;;;;
2021/11/25 22:36:03;;;;;;;55.2;65.3;;;;;;;1.8;83.3;97850;;;;
2021/11/25 22:46:03;;;;;;;55.2;65.3;;;;;;;2.2;83;97850;;;;
2021/11/25 22:57:03;;;;;;;53;60.9;;;;;;;2.5;82.2;97850;;;;
2021/11/25 23:08:03;;;;;;;53;60.9;;;;;;;2.2;81.3;97840;;;;
2021/11/25 23:18:03;;;;;;;53;60.9;;;;;;;2.8;81.8;97850;;;;
2021/11/25 23:29:03;;;;;;;54.4;65.4;;;;;;;3.1;81.3;97830;;;;
2021/11/25 23:39:03;;;;;;;54.4;65.4;;;;;;;2.8;79.2;97810;;;;
2021/11/25 23:49:04;;;;;;;54.4;65.4;;;;;;;2.8;78.4;97800;;;;
